sensor_id;sensor_type;location;lat;lon;timestamp;P1;durP1;ratioP1;P2;durP2;ratioP2
59659;SDS011;45534;52.690;6.268;2023-02-28T00:00:51;2.45;;;2.25;;
59659;SDS011;45534;52.690;6.268;2023-02-28T00:03:17;3.92;;;2.53;;
59659;SDS011;45534;52.690;6.268;2023-02-28T00:05:42;7.05;;;3.28;;
59659;SDS011;45534;52.690;6.268;2023-02-28T00:08:08;2.97;;;2.00;;
59659;SDS011;45534;52.690;6.268;2023-02-28T00:10:34;2.05;;;1.83;;
59659;SDS011;45534;52.690;6.268;2023-02-28T00:13:04;2.40;;;2.03;;
59659;SDS011;45534;52.690;6.268;2023-02-28T00:15:31;1.95;;;1.85;;
59659;SDS011;45534;52.690;6.268;2023-02-28T00:17:57;2.13;;;2.03;;
59659;SDS011;45534;52.690;6.268;2023-02-28T00:20:23;4.72;;;4.05;;
59659;SDS011;45534;52.690;6.268;2023-02-28T00:22:50;22.80;;;3.30;;
59659;SDS011;45534;52.690;6.268;2023-02-28T00:25:19;1.77;;;1.67;;
59659;SDS011;45534;52.690;6.268;2023-02-28T00:27:46;3.40;;;2.50;;
59659;SDS011;45534;52.690;6.268;2023-02-28T00:30:15;5.40;;;3.88;;
59659;SDS011;45534;52.690;6.268;2023-02-28T00:32:43;2.80;;;2.25;;
59659;SDS011;45534;52.690;6.268;2023-02-28T00:35:09;5.47;;;2.22;;
59659;SDS011;45534;52.690;6.268;2023-02-28T00:37:35;2.22;;;2.05;;
59659;SDS011;45534;52.690;6.268;2023-02-28T00:40:02;2.00;;;1.90;;
59659;SDS011;45534;52.690;6.268;2023-02-28T00:42:34;7.95;;;4.40;;
59659;SDS011;45534;52.690;6.268;2023-02-28T00:45:00;5.28;;;3.08;;
59659;SDS011;45534;52.690;6.268;2023-02-28T00:47:26;1.92;;;1.83;;
59659;SDS011;45534;52.690;6.268;2023-02-28T00:49:52;2.05;;;1.95;;
59659;SDS011;45534;52.690;6.268;2023-02-28T00:52:17;7.38;;;3.72;;
59659;SDS011;45534;52.690;6.268;2023-02-28T00:54:43;2.33;;;2.10;;
59659;SDS011;45534;52.690;6.268;2023-02-28T00:57:09;3.15;;;2.78;;
59659;SDS011;45534;52.690;6.268;2023-02-28T00:59:35;5.25;;;1.85;;
59659;SDS011;45534;52.690;6.268;2023-02-28T01:02:00;7.32;;;2.75;;
59659;SDS011;45534;52.690;6.268;2023-02-28T01:04:26;3.20;;;2.33;;
59659;SDS011;45534;52.690;6.268;2023-02-28T01:06:52;3.00;;;2.35;;
59659;SDS011;45534;52.690;6.268;2023-02-28T01:09:17;8.05;;;3.67;;
59659;SDS011;45534;52.690;6.268;2023-02-28T01:11:43;3.03;;;2.80;;
59659;SDS011;45534;52.690;6.268;2023-02-28T01:14:12;4.18;;;2.42;;
59659;SDS011;45534;52.690;6.268;2023-02-28T01:16:39;5.25;;;1.98;;
59659;SDS011;45534;52.690;6.268;2023-02-28T01:19:05;7.28;;;2.55;;
59659;SDS011;45534;52.690;6.268;2023-02-28T01:21:31;4.05;;;2.20;;
59659;SDS011;45534;52.690;6.268;2023-02-28T01:23:57;2.10;;;2.00;;
59659;SDS011;45534;52.690;6.268;2023-02-28T01:26:23;3.80;;;3.17;;
59659;SDS011;45534;52.690;6.268;2023-02-28T01:28:49;1.95;;;1.85;;
59659;SDS011;45534;52.690;6.268;2023-02-28T01:31:16;12.25;;;3.03;;
59659;SDS011;45534;52.690;6.268;2023-02-28T01:33:43;3.30;;;3.00;;
59659;SDS011;45534;52.690;6.268;2023-02-28T01:36:10;9.50;;;2.97;;
59659;SDS011;45534;52.690;6.268;2023-02-28T01:38:38;3.33;;;2.80;;
59659;SDS011;45534;52.690;6.268;2023-02-28T01:41:04;5.15;;;3.88;;
59659;SDS011;45534;52.690;6.268;2023-02-28T01:43:32;3.78;;;2.75;;
59659;SDS011;45534;52.690;6.268;2023-02-28T01:46:17;6.22;;;2.90;;
59659;SDS011;45534;52.690;6.268;2023-02-28T01:48:48;4.05;;;3.72;;
59659;SDS011;45534;52.690;6.268;2023-02-28T01:51:23;5.53;;;2.60;;
59659;SDS011;45534;52.690;6.268;2023-02-28T01:53:59;6.25;;;3.75;;
59659;SDS011;45534;52.690;6.268;2023-02-28T01:56:29;20.25;;;5.60;;
59659;SDS011;45534;52.690;6.268;2023-02-28T01:58:58;4.30;;;3.55;;
59659;SDS011;45534;52.690;6.268;2023-02-28T02:01:25;3.42;;;2.85;;
59659;SDS011;45534;52.690;6.268;2023-02-28T02:03:53;4.15;;;3.28;;
59659;SDS011;45534;52.690;6.268;2023-02-28T02:06:23;5.32;;;3.38;;
59659;SDS011;45534;52.690;6.268;2023-02-28T02:08:52;5.00;;;3.30;;
59659;SDS011;45534;52.690;6.268;2023-02-28T02:11:19;2.13;;;1.92;;
59659;SDS011;45534;52.690;6.268;2023-02-28T02:33:19;13.23;;;3.60;;
59659;SDS011;45534;52.690;6.268;2023-02-28T02:39:10;7.93;;;4.22;;
59659;SDS011;45534;52.690;6.268;2023-02-28T02:41:51;9.32;;;3.28;;
59659;SDS011;45534;52.690;6.268;2023-02-28T02:44:20;7.72;;;3.53;;
59659;SDS011;45534;52.690;6.268;2023-02-28T02:47:08;9.63;;;5.30;;
59659;SDS011;45534;52.690;6.268;2023-02-28T02:49:41;5.78;;;3.97;;
59659;SDS011;45534;52.690;6.268;2023-02-28T02:52:12;7.25;;;3.72;;
59659;SDS011;45534;52.690;6.268;2023-02-28T02:54:41;5.97;;;3.95;;
59659;SDS011;45534;52.690;6.268;2023-02-28T02:57:11;5.60;;;4.10;;
59659;SDS011;45534;52.690;6.268;2023-02-28T02:59:43;7.20;;;3.75;;
59659;SDS011;45534;52.690;6.268;2023-02-28T03:02:10;9.85;;;5.28;;
59659;SDS011;45534;52.690;6.268;2023-02-28T03:04:40;15.65;;;6.32;;
59659;SDS011;45534;52.690;6.268;2023-02-28T03:07:10;11.65;;;5.78;;
59659;SDS011;45534;52.690;6.268;2023-02-28T03:09:36;8.32;;;4.78;;
59659;SDS011;45534;52.690;6.268;2023-02-28T03:12:02;7.70;;;4.75;;
59659;SDS011;45534;52.690;6.268;2023-02-28T03:31:14;9.80;;;6.28;;
59659;SDS011;45534;52.690;6.268;2023-02-28T03:36:42;13.73;;;5.90;;
59659;SDS011;45534;52.690;6.268;2023-02-28T03:39:13;13.15;;;7.05;;
59659;SDS011;45534;52.690;6.268;2023-02-28T03:41:43;9.30;;;6.43;;
59659;SDS011;45534;52.690;6.268;2023-02-28T03:44:21;10.40;;;6.65;;
59659;SDS011;45534;52.690;6.268;2023-02-28T03:50:01;11.73;;;6.63;;
59659;SDS011;45534;52.690;6.268;2023-02-28T03:52:33;15.65;;;10.68;;
59659;SDS011;45534;52.690;6.268;2023-02-28T03:55:04;10.38;;;4.75;;
59659;SDS011;45534;52.690;6.268;2023-02-28T04:00:28;27.42;;;7.20;;
59659;SDS011;45534;52.690;6.268;2023-02-28T04:05:19;10.63;;;6.60;;
59659;SDS011;45534;52.690;6.268;2023-02-28T04:07:46;13.82;;;7.03;;
59659;SDS011;45534;52.690;6.268;2023-02-28T04:10:11;17.98;;;9.23;;
59659;SDS011;45534;52.690;6.268;2023-02-28T04:12:38;12.02;;;6.95;;
59659;SDS011;45534;52.690;6.268;2023-02-28T04:15:04;11.73;;;6.85;;
59659;SDS011;45534;52.690;6.268;2023-02-28T04:17:30;10.13;;;6.82;;
59659;SDS011;45534;52.690;6.268;2023-02-28T04:19:56;17.45;;;6.40;;
59659;SDS011;45534;52.690;6.268;2023-02-28T04:22:22;15.27;;;8.95;;
59659;SDS011;45534;52.690;6.268;2023-02-28T04:24:51;16.90;;;8.25;;
59659;SDS011;45534;52.690;6.268;2023-02-28T04:27:18;13.32;;;7.03;;
59659;SDS011;45534;52.690;6.268;2023-02-28T04:29:45;14.15;;;7.18;;
59659;SDS011;45534;52.690;6.268;2023-02-28T04:32:10;13.88;;;6.97;;
59659;SDS011;45534;52.690;6.268;2023-02-28T04:34:36;12.80;;;7.57;;
59659;SDS011;45534;52.690;6.268;2023-02-28T04:37:02;13.57;;;7.05;;
59659;SDS011;45534;52.690;6.268;2023-02-28T04:39:28;10.18;;;6.38;;
59659;SDS011;45534;52.690;6.268;2023-02-28T04:41:54;12.60;;;6.53;;
59659;SDS011;45534;52.690;6.268;2023-02-28T04:44:21;10.02;;;5.88;;
59659;SDS011;45534;52.690;6.268;2023-02-28T04:46:47;13.50;;;6.63;;
59659;SDS011;45534;52.690;6.268;2023-02-28T04:49:14;12.75;;;6.10;;
59659;SDS011;45534;52.690;6.268;2023-02-28T04:51:40;12.90;;;7.85;;
59659;SDS011;45534;52.690;6.268;2023-02-28T04:54:06;17.55;;;7.38;;
59659;SDS011;45534;52.690;6.268;2023-02-28T04:56:32;12.93;;;7.50;;
59659;SDS011;45534;52.690;6.268;2023-02-28T04:58:58;23.63;;;7.65;;
59659;SDS011;45534;52.690;6.268;2023-02-28T05:01:25;12.02;;;7.10;;
59659;SDS011;45534;52.690;6.268;2023-02-28T05:03:56;12.10;;;8.33;;
59659;SDS011;45534;52.690;6.268;2023-02-28T05:06:24;13.13;;;9.48;;
59659;SDS011;45534;52.690;6.268;2023-02-28T05:08:52;10.25;;;6.78;;
59659;SDS011;45534;52.690;6.268;2023-02-28T05:11:22;11.93;;;7.22;;
59659;SDS011;45534;52.690;6.268;2023-02-28T05:13:50;12.75;;;6.70;;
59659;SDS011;45534;52.690;6.268;2023-02-28T05:16:17;20.40;;;8.88;;
59659;SDS011;45534;52.690;6.268;2023-02-28T05:18:43;12.15;;;7.82;;
59659;SDS011;45534;52.690;6.268;2023-02-28T05:21:20;11.77;;;7.38;;
59659;SDS011;45534;52.690;6.268;2023-02-28T05:23:49;11.93;;;7.38;;
59659;SDS011;45534;52.690;6.268;2023-02-28T05:26:15;12.73;;;7.70;;
59659;SDS011;45534;52.690;6.268;2023-02-28T05:28:41;15.70;;;7.40;;
59659;SDS011;45534;52.690;6.268;2023-02-28T05:31:07;15.57;;;8.95;;
59659;SDS011;45534;52.690;6.268;2023-02-28T05:33:36;13.88;;;8.35;;
59659;SDS011;45534;52.690;6.268;2023-02-28T05:36:01;14.52;;;7.38;;
59659;SDS011;45534;52.690;6.268;2023-02-28T05:38:27;14.48;;;9.25;;
59659;SDS011;45534;52.690;6.268;2023-02-28T05:40:53;8.85;;;6.20;;
59659;SDS011;45534;52.690;6.268;2023-02-28T05:43:18;14.60;;;7.45;;
59659;SDS011;45534;52.690;6.268;2023-02-28T05:45:44;14.50;;;9.23;;
59659;SDS011;45534;52.690;6.268;2023-02-28T05:48:10;17.73;;;9.57;;
59659;SDS011;45534;52.690;6.268;2023-02-28T05:50:36;15.43;;;6.70;;
59659;SDS011;45534;52.690;6.268;2023-02-28T05:53:02;12.40;;;7.78;;
59659;SDS011;45534;52.690;6.268;2023-02-28T05:55:28;15.05;;;7.70;;
59659;SDS011;45534;52.690;6.268;2023-02-28T05:57:54;9.00;;;6.30;;
59659;SDS011;45534;52.690;6.268;2023-02-28T06:00:21;16.08;;;8.70;;
59659;SDS011;45534;52.690;6.268;2023-02-28T06:02:47;10.98;;;7.72;;
59659;SDS011;45534;52.690;6.268;2023-02-28T06:05:14;10.35;;;7.00;;
59659;SDS011;45534;52.690;6.268;2023-02-28T06:07:42;10.88;;;6.32;;
59659;SDS011;45534;52.690;6.268;2023-02-28T06:10:09;13.00;;;6.40;;
59659;SDS011;45534;52.690;6.268;2023-02-28T06:12:36;12.05;;;8.05;;
59659;SDS011;45534;52.690;6.268;2023-02-28T06:15:02;8.18;;;6.75;;
59659;SDS011;45534;52.690;6.268;2023-02-28T06:17:28;11.52;;;8.57;;
59659;SDS011;45534;52.690;6.268;2023-02-28T06:19:54;8.43;;;5.30;;
59659;SDS011;45534;52.690;6.268;2023-02-28T06:22:20;11.73;;;6.95;;
59659;SDS011;45534;52.690;6.268;2023-02-28T06:24:45;7.60;;;4.28;;
59659;SDS011;45534;52.690;6.268;2023-02-28T06:27:11;9.63;;;5.97;;
59659;SDS011;45534;52.690;6.268;2023-02-28T06:29:37;8.77;;;5.90;;
59659;SDS011;45534;52.690;6.268;2023-02-28T06:32:04;4.78;;;4.07;;
59659;SDS011;45534;52.690;6.268;2023-02-28T06:34:31;9.43;;;5.00;;
59659;SDS011;45534;52.690;6.268;2023-02-28T06:36:58;16.10;;;9.00;;
59659;SDS011;45534;52.690;6.268;2023-02-28T06:39:27;11.77;;;6.80;;
59659;SDS011;45534;52.690;6.268;2023-02-28T06:41:54;12.52;;;5.38;;
59659;SDS011;45534;52.690;6.268;2023-02-28T06:44:19;12.23;;;6.53;;
59659;SDS011;45534;52.690;6.268;2023-02-28T06:46:46;10.40;;;6.10;;
59659;SDS011;45534;52.690;6.268;2023-02-28T06:49:12;5.90;;;4.45;;
59659;SDS011;45534;52.690;6.268;2023-02-28T06:51:38;9.27;;;6.40;;
59659;SDS011;45534;52.690;6.268;2023-02-28T06:54:06;8.70;;;6.03;;
59659;SDS011;45534;52.690;6.268;2023-02-28T06:56:36;11.15;;;5.03;;
59659;SDS011;45534;52.690;6.268;2023-02-28T06:59:02;7.63;;;5.80;;
59659;SDS011;45534;52.690;6.268;2023-02-28T07:01:28;11.00;;;5.75;;
59659;SDS011;45534;52.690;6.268;2023-02-28T07:03:56;8.07;;;5.82;;
59659;SDS011;45534;52.690;6.268;2023-02-28T07:06:22;5.70;;;5.10;;
59659;SDS011;45534;52.690;6.268;2023-02-28T07:08:49;10.35;;;5.10;;
59659;SDS011;45534;52.690;6.268;2023-02-28T07:11:15;4.03;;;3.65;;
59659;SDS011;45534;52.690;6.268;2023-02-28T07:13:41;9.57;;;5.00;;
59659;SDS011;45534;52.690;6.268;2023-02-28T07:16:09;5.63;;;3.90;;
59659;SDS011;45534;52.690;6.268;2023-02-28T07:18:36;7.07;;;5.72;;
59659;SDS011;45534;52.690;6.268;2023-02-28T07:21:03;7.35;;;4.03;;
59659;SDS011;45534;52.690;6.268;2023-02-28T07:23:33;6.07;;;4.60;;
59659;SDS011;45534;52.690;6.268;2023-02-28T07:25:59;8.98;;;4.85;;
59659;SDS011;45534;52.690;6.268;2023-02-28T07:28:28;4.13;;;3.75;;
59659;SDS011;45534;52.690;6.268;2023-02-28T07:30:54;6.18;;;5.47;;
59659;SDS011;45534;52.690;6.268;2023-02-28T07:33:19;8.60;;;3.60;;
59659;SDS011;45534;52.690;6.268;2023-02-28T07:35:45;3.05;;;2.80;;
59659;SDS011;45534;52.690;6.268;2023-02-28T07:38:11;5.45;;;3.58;;
59659;SDS011;45534;52.690;6.268;2023-02-28T07:40:38;5.70;;;4.65;;
59659;SDS011;45534;52.690;6.268;2023-02-28T07:43:07;7.28;;;3.25;;
59659;SDS011;45534;52.690;6.268;2023-02-28T07:45:33;8.75;;;5.10;;
59659;SDS011;45534;52.690;6.268;2023-02-28T07:47:59;4.82;;;4.15;;
59659;SDS011;45534;52.690;6.268;2023-02-28T07:50:25;6.85;;;5.38;;
59659;SDS011;45534;52.690;6.268;2023-02-28T07:52:54;6.80;;;4.30;;
59659;SDS011;45534;52.690;6.268;2023-02-28T07:55:20;5.53;;;3.25;;
59659;SDS011;45534;52.690;6.268;2023-02-28T07:57:45;7.97;;;3.15;;
59659;SDS011;45534;52.690;6.268;2023-02-28T08:00:11;17.67;;;5.45;;
59659;SDS011;45534;52.690;6.268;2023-02-28T08:02:41;7.65;;;6.60;;
59659;SDS011;45534;52.690;6.268;2023-02-28T08:05:07;23.08;;;6.47;;
59659;SDS011;45534;52.690;6.268;2023-02-28T08:07:33;8.55;;;5.32;;
59659;SDS011;45534;52.690;6.268;2023-02-28T08:09:59;9.18;;;3.72;;
59659;SDS011;45534;52.690;6.268;2023-02-28T08:12:25;3.50;;;2.97;;
59659;SDS011;45534;52.690;6.268;2023-02-28T08:14:51;2.22;;;2.03;;
59659;SDS011;45534;52.690;6.268;2023-02-28T08:17:16;1.73;;;1.67;;
59659;SDS011;45534;52.690;6.268;2023-02-28T08:19:44;6.40;;;5.00;;
59659;SDS011;45534;52.690;6.268;2023-02-28T08:22:11;4.78;;;2.92;;
59659;SDS011;45534;52.690;6.268;2023-02-28T08:24:36;8.52;;;4.40;;
59659;SDS011;45534;52.690;6.268;2023-02-28T08:27:02;4.00;;;3.45;;
59659;SDS011;45534;52.690;6.268;2023-02-28T08:29:28;6.68;;;4.85;;
59659;SDS011;45534;52.690;6.268;2023-02-28T08:31:55;2.70;;;2.50;;
59659;SDS011;45534;52.690;6.268;2023-02-28T08:34:21;5.65;;;4.07;;
59659;SDS011;45534;52.690;6.268;2023-02-28T08:36:46;7.68;;;5.82;;
59659;SDS011;45534;52.690;6.268;2023-02-28T08:39:12;7.18;;;5.25;;
59659;SDS011;45534;52.690;6.268;2023-02-28T08:41:38;9.63;;;7.38;;
59659;SDS011;45534;52.690;6.268;2023-02-28T08:44:03;8.32;;;5.15;;
59659;SDS011;45534;52.690;6.268;2023-02-28T08:46:29;13.43;;;5.53;;
59659;SDS011;45534;52.690;6.268;2023-02-28T08:48:55;13.23;;;6.38;;
59659;SDS011;45534;52.690;6.268;2023-02-28T08:51:25;12.43;;;5.88;;
59659;SDS011;45534;52.690;6.268;2023-02-28T08:53:52;8.35;;;4.53;;
59659;SDS011;45534;52.690;6.268;2023-02-28T08:56:22;10.35;;;5.75;;
59659;SDS011;45534;52.690;6.268;2023-02-28T08:58:49;18.75;;;6.03;;
59659;SDS011;45534;52.690;6.268;2023-02-28T09:01:19;11.38;;;5.47;;
59659;SDS011;45534;52.690;6.268;2023-02-28T09:03:47;8.02;;;6.00;;
59659;SDS011;45534;52.690;6.268;2023-02-28T09:06:14;7.43;;;6.22;;
59659;SDS011;45534;52.690;6.268;2023-02-28T09:08:41;15.43;;;6.78;;
59659;SDS011;45534;52.690;6.268;2023-02-28T09:11:08;8.10;;;5.50;;
59659;SDS011;45534;52.690;6.268;2023-02-28T09:13:34;9.15;;;5.07;;
59659;SDS011;45534;52.690;6.268;2023-02-28T09:16:00;10.93;;;4.88;;
59659;SDS011;45534;52.690;6.268;2023-02-28T09:18:27;7.15;;;5.45;;
59659;SDS011;45534;52.690;6.268;2023-02-28T09:20:53;7.18;;;4.55;;
59659;SDS011;45534;52.690;6.268;2023-02-28T09:23:19;4.20;;;3.53;;
59659;SDS011;45534;52.690;6.268;2023-02-28T09:25:50;4.10;;;3.70;;
59659;SDS011;45534;52.690;6.268;2023-02-28T09:28:17;10.50;;;4.28;;
59659;SDS011;45534;52.690;6.268;2023-02-28T09:30:46;5.57;;;4.88;;
59659;SDS011;45534;52.690;6.268;2023-02-28T09:33:14;7.47;;;4.45;;
59659;SDS011;45534;52.690;6.268;2023-02-28T09:35:40;9.52;;;5.40;;
59659;SDS011;45534;52.690;6.268;2023-02-28T09:38:08;7.80;;;4.88;;
59659;SDS011;45534;52.690;6.268;2023-02-28T09:40:39;5.85;;;4.65;;
59659;SDS011;45534;52.690;6.268;2023-02-28T09:43:15;6.55;;;4.78;;
59659;SDS011;45534;52.690;6.268;2023-02-28T09:45:44;3.67;;;2.92;;
59659;SDS011;45534;52.690;6.268;2023-02-28T09:48:21;4.63;;;3.10;;
59659;SDS011;45534;52.690;6.268;2023-02-28T09:50:52;5.75;;;3.95;;
59659;SDS011;45534;52.690;6.268;2023-02-28T09:53:33;5.05;;;3.55;;
59659;SDS011;45534;52.690;6.268;2023-02-28T09:56:07;3.42;;;3.10;;
59659;SDS011;45534;52.690;6.268;2023-02-28T09:58:44;7.10;;;4.32;;
59659;SDS011;45534;52.690;6.268;2023-02-28T10:12:55;3.47;;;2.85;;
59659;SDS011;45534;52.690;6.268;2023-02-28T10:15:24;3.60;;;3.20;;
59659;SDS011;45534;52.690;6.268;2023-02-28T10:18:00;3.90;;;3.40;;
59659;SDS011;45534;52.690;6.268;2023-02-28T10:20:35;3.47;;;3.17;;
59659;SDS011;45534;52.690;6.268;2023-02-28T10:28:45;14.63;;;2.83;;
59659;SDS011;45534;52.690;6.268;2023-02-28T10:31:14;4.07;;;2.80;;
59659;SDS011;45534;52.690;6.268;2023-02-28T10:33:43;2.88;;;2.10;;
59659;SDS011;45534;52.690;6.268;2023-02-28T10:36:11;3.08;;;2.50;;
59659;SDS011;45534;52.690;6.268;2023-02-28T10:41:08;3.08;;;2.45;;
59659;SDS011;45534;52.690;6.268;2023-02-28T10:43:36;2.80;;;2.10;;
59659;SDS011;45534;52.690;6.268;2023-02-28T10:51:13;4.78;;;2.80;;
59659;SDS011;45534;52.690;6.268;2023-02-28T10:53:50;5.13;;;3.35;;
59659;SDS011;45534;52.690;6.268;2023-02-28T10:56:18;4.38;;;3.63;;
59659;SDS011;45534;52.690;6.268;2023-02-28T11:01:42;6.97;;;2.75;;
59659;SDS011;45534;52.690;6.268;2023-02-28T11:04:19;6.28;;;2.83;;
59659;SDS011;45534;52.690;6.268;2023-02-28T11:07:01;5.45;;;3.55;;
59659;SDS011;45534;52.690;6.268;2023-02-28T11:09:35;12.27;;;3.25;;
59659;SDS011;45534;52.690;6.268;2023-02-28T11:12:05;3.63;;;3.13;;
59659;SDS011;45534;52.690;6.268;2023-02-28T11:14:54;1.23;;;1.23;;
59659;SDS011;45534;52.690;6.268;2023-02-28T11:17:41;4.80;;;3.40;;
59659;SDS011;45534;52.690;6.268;2023-02-28T11:20:10;4.60;;;2.50;;
59659;SDS011;45534;52.690;6.268;2023-02-28T11:22:46;4.15;;;3.03;;
59659;SDS011;45534;52.690;6.268;2023-02-28T11:25:16;4.95;;;3.38;;
59659;SDS011;45534;52.690;6.268;2023-02-28T11:27:51;3.33;;;2.45;;
59659;SDS011;45534;52.690;6.268;2023-02-28T11:30:22;3.22;;;2.45;;
59659;SDS011;45534;52.690;6.268;2023-02-28T11:33:18;5.03;;;3.88;;
59659;SDS011;45534;52.690;6.268;2023-02-28T11:35:45;3.67;;;2.20;;
59659;SDS011;45534;52.690;6.268;2023-02-28T11:38:14;3.55;;;2.63;;
59659;SDS011;45534;52.690;6.268;2023-02-28T11:48:52;3.92;;;2.75;;
59659;SDS011;45534;52.690;6.268;2023-02-28T11:51:28;6.03;;;3.08;;
59659;SDS011;45534;52.690;6.268;2023-02-28T11:56:55;3.53;;;3.15;;
59659;SDS011;45534;52.690;6.268;2023-02-28T12:09:58;2.58;;;2.38;;
59659;SDS011;45534;52.690;6.268;2023-02-28T12:28:43;2.67;;;2.47;;
59659;SDS011;45534;52.690;6.268;2023-02-28T12:33:53;3.10;;;2.80;;
59659;SDS011;45534;52.690;6.268;2023-02-28T12:36:25;3.13;;;2.20;;
59659;SDS011;45534;52.690;6.268;2023-02-28T12:38:58;2.67;;;2.47;;
59659;SDS011;45534;52.690;6.268;2023-02-28T12:44:18;4.03;;;2.28;;
59659;SDS011;45534;52.690;6.268;2023-02-28T12:47:09;3.45;;;3.20;;
59659;SDS011;45534;52.690;6.268;2023-02-28T12:52:41;3.92;;;2.70;;
59659;SDS011;45534;52.690;6.268;2023-02-28T13:00:36;4.68;;;3.50;;
59659;SDS011;45534;52.690;6.268;2023-02-28T13:03:26;7.47;;;3.60;;
59659;SDS011;45534;52.690;6.268;2023-02-28T13:06:07;7.43;;;3.00;;
59659;SDS011;45534;52.690;6.268;2023-02-28T13:11:54;3.60;;;2.75;;
59659;SDS011;45534;52.690;6.268;2023-02-28T13:20:19;6.55;;;3.70;;
59659;SDS011;45534;52.690;6.268;2023-02-28T13:25:00;2.72;;;2.53;;
59659;SDS011;45534;52.690;6.268;2023-02-28T13:27:44;4.38;;;2.58;;
59659;SDS011;45534;52.690;6.268;2023-02-28T13:33:21;8.52;;;3.90;;
59659;SDS011;45534;52.690;6.268;2023-02-28T13:36:19;4.10;;;3.70;;
59659;SDS011;45534;52.690;6.268;2023-02-28T13:38:48;5.97;;;3.95;;
59659;SDS011;45534;52.690;6.268;2023-02-28T13:44:19;3.85;;;3.47;;
59659;SDS011;45534;52.690;6.268;2023-02-28T14:11:35;4.68;;;4.00;;
59659;SDS011;45534;52.690;6.268;2023-02-28T14:14:03;4.77;;;3.93;;
59659;SDS011;45534;52.690;6.268;2023-02-28T14:16:36;5.57;;;3.60;;
59659;SDS011;45534;52.690;6.268;2023-02-28T14:21:47;5.28;;;3.80;;
59659;SDS011;45534;52.690;6.268;2023-02-28T14:37:54;7.30;;;5.40;;
59659;SDS011;45534;52.690;6.268;2023-02-28T14:40:23;5.13;;;4.38;;
59659;SDS011;45534;52.690;6.268;2023-02-28T14:42:57;7.40;;;4.90;;
59659;SDS011;45534;52.690;6.268;2023-02-28T14:45:29;10.38;;;8.38;;
59659;SDS011;45534;52.690;6.268;2023-02-28T14:47:57;7.20;;;4.60;;
59659;SDS011;45534;52.690;6.268;2023-02-28T14:50:31;8.00;;;4.70;;
59659;SDS011;45534;52.690;6.268;2023-02-28T14:53:00;6.88;;;4.35;;
59659;SDS011;45534;52.690;6.268;2023-02-28T14:55:28;7.90;;;5.22;;
59659;SDS011;45534;52.690;6.268;2023-02-28T14:58:22;9.38;;;4.70;;
59659;SDS011;45534;52.690;6.268;2023-02-28T15:00:48;6.82;;;4.75;;
59659;SDS011;45534;52.690;6.268;2023-02-28T15:03:30;7.47;;;4.30;;
59659;SDS011;45534;52.690;6.268;2023-02-28T15:05:59;8.38;;;5.68;;
59659;SDS011;45534;52.690;6.268;2023-02-28T15:08:27;7.88;;;5.50;;
59659;SDS011;45534;52.690;6.268;2023-02-28T15:13:21;8.32;;;5.47;;
59659;SDS011;45534;52.690;6.268;2023-02-28T15:18:25;7.95;;;4.97;;
59659;SDS011;45534;52.690;6.268;2023-02-28T15:20:57;6.38;;;5.13;;
59659;SDS011;45534;52.690;6.268;2023-02-28T15:23:27;6.82;;;4.20;;
59659;SDS011;45534;52.690;6.268;2023-02-28T15:25:54;7.18;;;5.07;;
59659;SDS011;45534;52.690;6.268;2023-02-28T15:28:21;8.80;;;4.93;;
59659;SDS011;45534;52.690;6.268;2023-02-28T15:30:56;14.90;;;5.20;;
59659;SDS011;45534;52.690;6.268;2023-02-28T15:33:28;5.03;;;4.15;;
59659;SDS011;45534;52.690;6.268;2023-02-28T15:36:05;5.50;;;4.38;;
59659;SDS011;45534;52.690;6.268;2023-02-28T15:38:35;10.85;;;7.05;;
59659;SDS011;45534;52.690;6.268;2023-02-28T15:41:01;6.80;;;3.45;;
59659;SDS011;45534;52.690;6.268;2023-02-28T15:43:34;5.22;;;3.85;;
59659;SDS011;45534;52.690;6.268;2023-02-28T15:46:11;6.10;;;4.32;;
59659;SDS011;45534;52.690;6.268;2023-02-28T15:48:50;10.73;;;6.03;;
59659;SDS011;45534;52.690;6.268;2023-02-28T15:51:17;12.40;;;5.13;;
59659;SDS011;45534;52.690;6.268;2023-02-28T15:53:58;7.45;;;5.28;;
59659;SDS011;45534;52.690;6.268;2023-02-28T15:56:38;7.32;;;4.43;;
59659;SDS011;45534;52.690;6.268;2023-02-28T15:59:13;5.30;;;3.28;;
59659;SDS011;45534;52.690;6.268;2023-02-28T16:01:44;5.57;;;3.60;;
59659;SDS011;45534;52.690;6.268;2023-02-28T16:04:14;6.18;;;4.00;;
59659;SDS011;45534;52.690;6.268;2023-02-28T16:06:42;3.90;;;3.50;;
59659;SDS011;45534;52.690;6.268;2023-02-28T16:09:16;4.05;;;3.50;;
59659;SDS011;45534;52.690;6.268;2023-02-28T16:11:46;3.78;;;3.42;;
59659;SDS011;45534;52.690;6.268;2023-02-28T16:14:15;6.32;;;3.28;;
59659;SDS011;45534;52.690;6.268;2023-02-28T16:16:50;4.63;;;3.40;;
59659;SDS011;45534;52.690;6.268;2023-02-28T16:19:18;4.07;;;3.60;;
59659;SDS011;45534;52.690;6.268;2023-02-28T16:21:44;3.22;;;2.80;;
59659;SDS011;45534;52.690;6.268;2023-02-28T16:24:10;3.10;;;2.80;;
59659;SDS011;45534;52.690;6.268;2023-02-28T16:26:36;4.68;;;4.25;;
59659;SDS011;45534;52.690;6.268;2023-02-28T16:29:12;5.38;;;4.40;;
59659;SDS011;45534;52.690;6.268;2023-02-28T16:31:43;5.63;;;3.45;;
59659;SDS011;45534;52.690;6.268;2023-02-28T16:34:09;8.57;;;5.05;;
59659;SDS011;45534;52.690;6.268;2023-02-28T16:36:35;4.82;;;4.00;;
59659;SDS011;45534;52.690;6.268;2023-02-28T16:39:00;6.00;;;4.43;;
59659;SDS011;45534;52.690;6.268;2023-02-28T16:41:27;5.93;;;4.35;;
59659;SDS011;45534;52.690;6.268;2023-02-28T16:43:54;6.03;;;2.90;;
59659;SDS011;45534;52.690;6.268;2023-02-28T16:46:27;6.37;;;5.77;;
59659;SDS011;45534;52.690;6.268;2023-02-28T16:48:58;3.55;;;2.92;;
59659;SDS011;45534;52.690;6.268;2023-02-28T16:51:24;5.10;;;3.70;;
59659;SDS011;45534;52.690;6.268;2023-02-28T16:53:49;3.55;;;3.25;;
59659;SDS011;45534;52.690;6.268;2023-02-28T16:56:19;5.68;;;3.42;;
59659;SDS011;45534;52.690;6.268;2023-02-28T16:58:47;6.40;;;4.88;;
59659;SDS011;45534;52.690;6.268;2023-02-28T17:01:14;4.72;;;3.75;;
59659;SDS011;45534;52.690;6.268;2023-02-28T17:03:40;6.53;;;3.97;;
59659;SDS011;45534;52.690;6.268;2023-02-28T17:06:23;3.53;;;3.22;;
59659;SDS011;45534;52.690;6.268;2023-02-28T17:08:51;9.57;;;5.15;;
59659;SDS011;45534;52.690;6.268;2023-02-28T17:11:17;7.70;;;4.07;;
59659;SDS011;45534;52.690;6.268;2023-02-28T17:13:43;6.35;;;4.10;;
59659;SDS011;45534;52.690;6.268;2023-02-28T17:16:31;3.47;;;3.17;;
59659;SDS011;45534;52.690;6.268;2023-02-28T17:18:58;6.95;;;3.25;;
59659;SDS011;45534;52.690;6.268;2023-02-28T17:21:25;3.63;;;3.00;;
59659;SDS011;45534;52.690;6.268;2023-02-28T17:23:51;5.90;;;3.65;;
59659;SDS011;45534;52.690;6.268;2023-02-28T17:26:17;16.92;;;3.70;;
59659;SDS011;45534;52.690;6.268;2023-02-28T17:28:45;6.47;;;5.28;;
59659;SDS011;45534;52.690;6.268;2023-02-28T17:31:12;8.57;;;4.38;;
59659;SDS011;45534;52.690;6.268;2023-02-28T17:33:38;8.73;;;4.03;;
59659;SDS011;45534;52.690;6.268;2023-02-28T17:36:04;4.80;;;3.15;;
59659;SDS011;45534;52.690;6.268;2023-02-28T17:38:29;4.78;;;3.67;;
59659;SDS011;45534;52.690;6.268;2023-02-28T17:40:55;5.57;;;4.15;;
59659;SDS011;45534;52.690;6.268;2023-02-28T17:43:24;5.43;;;3.28;;
59659;SDS011;45534;52.690;6.268;2023-02-28T17:45:51;5.45;;;4.90;;
59659;SDS011;45534;52.690;6.268;2023-02-28T17:48:17;5.20;;;4.03;;
59659;SDS011;45534;52.690;6.268;2023-02-28T17:50:42;5.22;;;3.75;;
59659;SDS011;45534;52.690;6.268;2023-02-28T17:53:08;4.57;;;4.18;;
59659;SDS011;45534;52.690;6.268;2023-02-28T17:55:34;5.18;;;4.72;;
59659;SDS011;45534;52.690;6.268;2023-02-28T17:58:00;6.88;;;4.95;;
59659;SDS011;45534;52.690;6.268;2023-02-28T18:00:28;7.25;;;4.22;;
59659;SDS011;45534;52.690;6.268;2023-02-28T18:02:54;7.50;;;4.35;;
59659;SDS011;45534;52.690;6.268;2023-02-28T18:05:19;3.83;;;3.35;;
59659;SDS011;45534;52.690;6.268;2023-02-28T18:07:48;3.95;;;3.58;;